sensor_id;sensor_type;location;lat;lon;timestamp;P1;durP1;ratioP1;P2;durP2;ratioP2
36747;SDS011;22716;51.556;5.080;2023-01-08T00:01:41;7.10;;;2.07;;
36747;SDS011;22716;51.556;5.080;2023-01-08T00:04:11;6.17;;;2.10;;
36747;SDS011;22716;51.556;5.080;2023-01-08T00:06:44;4.17;;;2.53;;
36747;SDS011;22716;51.556;5.080;2023-01-08T00:09:13;6.97;;;2.63;;
36747;SDS011;22716;51.556;5.080;2023-01-08T00:11:42;8.80;;;2.50;;
36747;SDS011;22716;51.556;5.080;2023-01-08T00:14:13;5.37;;;2.17;;
36747;SDS011;22716;51.556;5.080;2023-01-08T00:16:42;3.97;;;2.57;;
36747;SDS011;22716;51.556;5.080;2023-01-08T00:19:11;5.27;;;2.27;;
36747;SDS011;22716;51.556;5.080;2023-01-08T00:21:40;5.57;;;1.80;;
36747;SDS011;22716;51.556;5.080;2023-01-08T00:24:12;4.70;;;2.87;;
36747;SDS011;22716;51.556;5.080;2023-01-08T00:26:41;4.57;;;2.50;;
36747;SDS011;22716;51.556;5.080;2023-01-08T00:29:09;4.30;;;2.60;;
36747;SDS011;22716;51.556;5.080;2023-01-08T00:31:38;3.70;;;2.50;;
36747;SDS011;22716;51.556;5.080;2023-01-08T00:34:07;9.67;;;3.00;;
36747;SDS011;22716;51.556;5.080;2023-01-08T00:36:36;5.27;;;2.23;;
36747;SDS011;22716;51.556;5.080;2023-01-08T00:39:05;7.17;;;2.50;;
36747;SDS011;22716;51.556;5.080;2023-01-08T00:41:36;7.30;;;3.13;;
36747;SDS011;22716;51.556;5.080;2023-01-08T00:44:08;4.53;;;2.60;;
36747;SDS011;22716;51.556;5.080;2023-01-08T00:46:37;4.70;;;2.30;;
36747;SDS011;22716;51.556;5.080;2023-01-08T00:49:06;5.47;;;2.93;;
36747;SDS011;22716;51.556;5.080;2023-01-08T00:51:34;4.97;;;2.50;;
36747;SDS011;22716;51.556;5.080;2023-01-08T00:54:03;3.87;;;1.90;;
36747;SDS011;22716;51.556;5.080;2023-01-08T00:56:32;4.67;;;2.60;;
36747;SDS011;22716;51.556;5.080;2023-01-08T00:59:03;3.70;;;2.30;;
36747;SDS011;22716;51.556;5.080;2023-01-08T01:01:33;6.23;;;3.27;;
36747;SDS011;22716;51.556;5.080;2023-01-08T01:04:02;5.67;;;2.40;;
36747;SDS011;22716;51.556;5.080;2023-01-08T01:06:31;4.70;;;2.43;;
36747;SDS011;22716;51.556;5.080;2023-01-08T01:09:00;3.30;;;2.33;;
36747;SDS011;22716;51.556;5.080;2023-01-08T01:11:29;8.83;;;2.73;;
36747;SDS011;22716;51.556;5.080;2023-01-08T01:13:57;5.47;;;2.20;;
36747;SDS011;22716;51.556;5.080;2023-01-08T01:16:29;3.83;;;2.17;;
36747;SDS011;22716;51.556;5.080;2023-01-08T01:18:58;3.80;;;1.97;;
36747;SDS011;22716;51.556;5.080;2023-01-08T01:21:28;3.23;;;2.13;;
36747;SDS011;22716;51.556;5.080;2023-01-08T01:23:58;8.53;;;2.77;;
36747;SDS011;22716;51.556;5.080;2023-01-08T01:26:28;6.63;;;2.97;;
36747;SDS011;22716;51.556;5.080;2023-01-08T01:28:58;3.90;;;2.30;;
36747;SDS011;22716;51.556;5.080;2023-01-08T01:31:30;5.37;;;2.27;;
36747;SDS011;22716;51.556;5.080;2023-01-08T01:34:00;3.90;;;2.00;;
36747;SDS011;22716;51.556;5.080;2023-01-08T01:36:28;3.53;;;2.10;;
36747;SDS011;22716;51.556;5.080;2023-01-08T01:38:57;3.77;;;2.27;;
36747;SDS011;22716;51.556;5.080;2023-01-08T01:41:26;5.43;;;1.97;;
36747;SDS011;22716;51.556;5.080;2023-01-08T01:43:57;4.03;;;2.30;;
36747;SDS011;22716;51.556;5.080;2023-01-08T01:46:33;5.83;;;2.50;;
36747;SDS011;22716;51.556;5.080;2023-01-08T01:49:05;4.33;;;2.07;;
36747;SDS011;22716;51.556;5.080;2023-01-08T01:51:37;4.57;;;1.83;;
36747;SDS011;22716;51.556;5.080;2023-01-08T01:54:12;4.60;;;1.70;;
36747;SDS011;22716;51.556;5.080;2023-01-08T01:56:42;2.60;;;1.80;;
36747;SDS011;22716;51.556;5.080;2023-01-08T01:59:11;4.07;;;1.17;;
36747;SDS011;22716;51.556;5.080;2023-01-08T02:01:43;4.13;;;1.30;;
36747;SDS011;22716;51.556;5.080;2023-01-08T02:04:13;2.97;;;1.03;;
36747;SDS011;22716;51.556;5.080;2023-01-08T02:06:45;3.80;;;0.90;;
36747;SDS011;22716;51.556;5.080;2023-01-08T02:09:17;5.57;;;1.10;;
36747;SDS011;22716;51.556;5.080;2023-01-08T02:14:36;2.67;;;0.67;;
36747;SDS011;22716;51.556;5.080;2023-01-08T02:17:14;1.63;;;0.80;;
36747;SDS011;22716;51.556;5.080;2023-01-08T02:19:47;3.80;;;1.40;;
36747;SDS011;22716;51.556;5.080;2023-01-08T02:22:22;4.90;;;1.30;;
36747;SDS011;22716;51.556;5.080;2023-01-08T02:25:05;2.13;;;0.90;;
36747;SDS011;22716;51.556;5.080;2023-01-08T02:27:41;2.70;;;1.27;;
36747;SDS011;22716;51.556;5.080;2023-01-08T02:30:13;1.43;;;0.80;;
36747;SDS011;22716;51.556;5.080;2023-01-08T02:32:42;2.20;;;0.87;;
36747;SDS011;22716;51.556;5.080;2023-01-08T02:35:11;3.90;;;0.73;;
36747;SDS011;22716;51.556;5.080;2023-01-08T02:37:40;8.67;;;1.37;;
36747;SDS011;22716;51.556;5.080;2023-01-08T02:40:12;4.73;;;0.77;;
36747;SDS011;22716;51.556;5.080;2023-01-08T02:42:50;6.30;;;1.70;;
36747;SDS011;22716;51.556;5.080;2023-01-08T02:45:32;4.70;;;0.90;;
36747;SDS011;22716;51.556;5.080;2023-01-08T02:48:08;7.93;;;1.83;;
36747;SDS011;22716;51.556;5.080;2023-01-08T02:50:40;1.87;;;0.60;;
36747;SDS011;22716;51.556;5.080;2023-01-08T02:53:12;5.33;;;1.77;;
36747;SDS011;22716;51.556;5.080;2023-01-08T02:55:44;3.80;;;0.80;;
36747;SDS011;22716;51.556;5.080;2023-01-08T02:58:19;4.17;;;1.07;;
36747;SDS011;22716;51.556;5.080;2023-01-08T03:00:50;2.95;;;1.02;;
36747;SDS011;22716;51.556;5.080;2023-01-08T03:03:22;3.67;;;1.67;;
36747;SDS011;22716;51.556;5.080;2023-01-08T03:05:55;6.50;;;0.77;;
36747;SDS011;22716;51.556;5.080;2023-01-08T03:08:26;5.57;;;1.40;;
36747;SDS011;22716;51.556;5.080;2023-01-08T03:10:55;2.73;;;0.87;;
36747;SDS011;22716;51.556;5.080;2023-01-08T03:13:32;1.90;;;1.10;;
36747;SDS011;22716;51.556;5.080;2023-01-08T03:16:07;3.13;;;0.90;;
36747;SDS011;22716;51.556;5.080;2023-01-08T03:18:40;6.07;;;0.83;;
36747;SDS011;22716;51.556;5.080;2023-01-08T03:21:13;6.47;;;1.63;;
36747;SDS011;22716;51.556;5.080;2023-01-08T03:23:48;4.37;;;1.47;;
36747;SDS011;22716;51.556;5.080;2023-01-08T03:26:20;4.63;;;1.17;;
36747;SDS011;22716;51.556;5.080;2023-01-08T03:28:54;4.57;;;0.97;;
36747;SDS011;22716;51.556;5.080;2023-01-08T03:31:25;4.73;;;0.97;;
36747;SDS011;22716;51.556;5.080;2023-01-08T03:33:58;2.05;;;0.80;;
36747;SDS011;22716;51.556;5.080;2023-01-08T03:36:30;2.33;;;0.90;;
36747;SDS011;22716;51.556;5.080;2023-01-08T03:39:02;4.87;;;1.00;;
36747;SDS011;22716;51.556;5.080;2023-01-08T03:41:36;2.90;;;1.27;;
36747;SDS011;22716;51.556;5.080;2023-01-08T03:44:08;2.00;;;1.00;;
36747;SDS011;22716;51.556;5.080;2023-01-08T03:46:38;3.20;;;0.77;;
36747;SDS011;22716;51.556;5.080;2023-01-08T03:49:12;5.30;;;1.37;;
36747;SDS011;22716;51.556;5.080;2023-01-08T03:51:42;5.23;;;1.03;;
36747;SDS011;22716;51.556;5.080;2023-01-08T03:54:13;2.40;;;1.27;;
36747;SDS011;22716;51.556;5.080;2023-01-08T03:56:43;4.43;;;1.27;;
36747;SDS011;22716;51.556;5.080;2023-01-08T03:59:15;2.83;;;1.20;;
36747;SDS011;22716;51.556;5.080;2023-01-08T04:01:44;6.67;;;1.30;;
36747;SDS011;22716;51.556;5.080;2023-01-08T04:04:13;3.90;;;1.20;;
36747;SDS011;22716;51.556;5.080;2023-01-08T04:06:42;3.77;;;1.30;;
36747;SDS011;22716;51.556;5.080;2023-01-08T04:09:10;3.57;;;0.93;;
36747;SDS011;22716;51.556;5.080;2023-01-08T04:11:39;2.40;;;1.00;;
36747;SDS011;22716;51.556;5.080;2023-01-08T04:14:08;4.13;;;1.37;;
36747;SDS011;22716;51.556;5.080;2023-01-08T04:16:39;3.70;;;1.27;;
36747;SDS011;22716;51.556;5.080;2023-01-08T04:19:09;4.13;;;1.40;;
36747;SDS011;22716;51.556;5.080;2023-01-08T04:21:38;2.53;;;1.30;;
36747;SDS011;22716;51.556;5.080;2023-01-08T04:24:07;3.10;;;1.30;;
36747;SDS011;22716;51.556;5.080;2023-01-08T04:26:36;2.30;;;1.30;;
36747;SDS011;22716;51.556;5.080;2023-01-08T04:29:05;3.70;;;1.57;;
36747;SDS011;22716;51.556;5.080;2023-01-08T04:31:34;4.50;;;1.53;;
36747;SDS011;22716;51.556;5.080;2023-01-08T04:34:05;3.03;;;1.33;;
36747;SDS011;22716;51.556;5.080;2023-01-08T04:36:34;1.93;;;1.00;;
36747;SDS011;22716;51.556;5.080;2023-01-08T04:39:03;4.83;;;1.87;;
36747;SDS011;22716;51.556;5.080;2023-01-08T04:41:32;2.90;;;0.97;;
36747;SDS011;22716;51.556;5.080;2023-01-08T04:44:00;6.03;;;1.30;;
36747;SDS011;22716;51.556;5.080;2023-01-08T04:46:29;4.93;;;1.53;;
36747;SDS011;22716;51.556;5.080;2023-01-08T04:48:58;2.37;;;0.93;;
36747;SDS011;22716;51.556;5.080;2023-01-08T04:51:29;1.33;;;0.83;;
36747;SDS011;22716;51.556;5.080;2023-01-08T04:53:58;1.03;;;0.70;;
36747;SDS011;22716;51.556;5.080;2023-01-08T04:56:27;4.00;;;1.10;;
36747;SDS011;22716;51.556;5.080;2023-01-08T04:58:56;3.27;;;1.37;;
36747;SDS011;22716;51.556;5.080;2023-01-08T05:01:26;7.67;;;1.17;;
36747;SDS011;22716;51.556;5.080;2023-01-08T05:03:55;2.63;;;1.00;;
36747;SDS011;22716;51.556;5.080;2023-01-08T05:06:27;2.17;;;0.80;;
36747;SDS011;22716;51.556;5.080;2023-01-08T05:08:59;3.13;;;1.03;;
36747;SDS011;22716;51.556;5.080;2023-01-08T05:11:28;2.47;;;0.80;;
36747;SDS011;22716;51.556;5.080;2023-01-08T05:13:56;4.07;;;1.40;;
36747;SDS011;22716;51.556;5.080;2023-01-08T05:16:25;4.40;;;1.10;;
36747;SDS011;22716;51.556;5.080;2023-01-08T05:18:54;2.83;;;1.07;;
36747;SDS011;22716;51.556;5.080;2023-01-08T05:21:23;3.93;;;1.30;;
36747;SDS011;22716;51.556;5.080;2023-01-08T05:23:54;2.03;;;1.13;;
36747;SDS011;22716;51.556;5.080;2023-01-08T05:26:23;2.83;;;0.90;;
36747;SDS011;22716;51.556;5.080;2023-01-08T05:28:52;2.90;;;1.10;;
36747;SDS011;22716;51.556;5.080;2023-01-08T05:31:20;2.67;;;0.90;;
36747;SDS011;22716;51.556;5.080;2023-01-08T05:33:49;3.70;;;1.00;;
36747;SDS011;22716;51.556;5.080;2023-01-08T05:36:18;1.00;;;0.90;;
36747;SDS011;22716;51.556;5.080;2023-01-08T05:38:47;2.47;;;1.40;;
36747;SDS011;22716;51.556;5.080;2023-01-08T05:41:18;6.93;;;1.43;;
36747;SDS011;22716;51.556;5.080;2023-01-08T05:43:47;4.83;;;1.07;;
36747;SDS011;22716;51.556;5.080;2023-01-08T05:46:15;2.63;;;0.80;;
36747;SDS011;22716;51.556;5.080;2023-01-08T05:48:44;2.50;;;1.13;;
36747;SDS011;22716;51.556;5.080;2023-01-08T05:51:13;4.30;;;1.27;;
36747;SDS011;22716;51.556;5.080;2023-01-08T05:53:41;2.40;;;1.07;;
36747;SDS011;22716;51.556;5.080;2023-01-08T05:56:11;6.30;;;1.17;;
36747;SDS011;22716;51.556;5.080;2023-01-08T05:58:42;5.13;;;1.43;;
36747;SDS011;22716;51.556;5.080;2023-01-08T06:01:11;2.97;;;1.70;;
36747;SDS011;22716;51.556;5.080;2023-01-08T06:03:42;6.03;;;1.63;;
36747;SDS011;22716;51.556;5.080;2023-01-08T06:06:11;2.70;;;0.97;;
36747;SDS011;22716;51.556;5.080;2023-01-08T06:08:40;5.23;;;1.40;;
36747;SDS011;22716;51.556;5.080;2023-01-08T06:11:09;2.73;;;1.40;;
36747;SDS011;22716;51.556;5.080;2023-01-08T06:13:42;5.90;;;1.20;;
36747;SDS011;22716;51.556;5.080;2023-01-08T06:16:11;3.57;;;1.13;;
36747;SDS011;22716;51.556;5.080;2023-01-08T06:18:41;3.33;;;0.93;;
36747;SDS011;22716;51.556;5.080;2023-01-08T06:21:10;3.87;;;1.97;;
36747;SDS011;22716;51.556;5.080;2023-01-08T06:23:39;9.07;;;1.40;;
36747;SDS011;22716;51.556;5.080;2023-01-08T06:26:08;3.50;;;1.20;;
36747;SDS011;22716;51.556;5.080;2023-01-08T06:28:37;2.47;;;1.23;;
36747;SDS011;22716;51.556;5.080;2023-01-08T06:31:08;6.70;;;2.60;;
36747;SDS011;22716;51.556;5.080;2023-01-08T06:33:37;8.70;;;1.60;;
36747;SDS011;22716;51.556;5.080;2023-01-08T06:36:06;6.60;;;2.20;;
36747;SDS011;22716;51.556;5.080;2023-01-08T06:38:36;4.90;;;2.07;;
36747;SDS011;22716;51.556;5.080;2023-01-08T06:41:05;7.70;;;1.20;;
36747;SDS011;22716;51.556;5.080;2023-01-08T06:43:36;7.80;;;2.07;;
36747;SDS011;22716;51.556;5.080;2023-01-08T06:46:05;7.90;;;1.97;;
36747;SDS011;22716;51.556;5.080;2023-01-08T06:48:38;6.90;;;1.70;;
36747;SDS011;22716;51.556;5.080;2023-01-08T06:51:06;7.17;;;1.73;;
36747;SDS011;22716;51.556;5.080;2023-01-08T06:53:37;6.63;;;1.33;;
36747;SDS011;22716;51.556;5.080;2023-01-08T06:56:06;6.30;;;2.37;;
36747;SDS011;22716;51.556;5.080;2023-01-08T06:58:37;9.67;;;2.40;;
36747;SDS011;22716;51.556;5.080;2023-01-08T07:01:09;10.27;;;3.00;;
36747;SDS011;22716;51.556;5.080;2023-01-08T07:03:41;10.37;;;1.40;;
36747;SDS011;22716;51.556;5.080;2023-01-08T07:06:12;5.00;;;2.10;;
36747;SDS011;22716;51.556;5.080;2023-01-08T07:08:42;6.80;;;1.40;;
36747;SDS011;22716;51.556;5.080;2023-01-08T07:11:12;7.20;;;1.70;;
36747;SDS011;22716;51.556;5.080;2023-01-08T07:13:42;8.33;;;2.27;;
36747;SDS011;22716;51.556;5.080;2023-01-08T07:16:13;9.23;;;2.27;;
36747;SDS011;22716;51.556;5.080;2023-01-08T07:18:44;10.37;;;2.17;;
36747;SDS011;22716;51.556;5.080;2023-01-08T07:21:13;6.63;;;2.17;;
36747;SDS011;22716;51.556;5.080;2023-01-08T07:23:41;10.00;;;2.37;;
36747;SDS011;22716;51.556;5.080;2023-01-08T07:26:11;6.47;;;2.13;;
36747;SDS011;22716;51.556;5.080;2023-01-08T07:28:40;10.43;;;2.27;;
36747;SDS011;22716;51.556;5.080;2023-01-08T07:31:09;7.00;;;2.37;;
36747;SDS011;22716;51.556;5.080;2023-01-08T07:33:41;6.57;;;2.60;;
36747;SDS011;22716;51.556;5.080;2023-01-08T07:36:09;8.57;;;2.77;;
36747;SDS011;22716;51.556;5.080;2023-01-08T07:38:38;7.63;;;1.90;;
36747;SDS011;22716;51.556;5.080;2023-01-08T07:41:07;15.53;;;2.63;;
36747;SDS011;22716;51.556;5.080;2023-01-08T07:43:37;5.83;;;1.67;;
36747;SDS011;22716;51.556;5.080;2023-01-08T07:46:06;7.23;;;1.80;;
36747;SDS011;22716;51.556;5.080;2023-01-08T07:48:35;5.13;;;1.67;;
36747;SDS011;22716;51.556;5.080;2023-01-08T07:51:07;7.50;;;1.80;;
36747;SDS011;22716;51.556;5.080;2023-01-08T07:53:36;3.27;;;1.83;;
36747;SDS011;22716;51.556;5.080;2023-01-08T07:56:06;5.83;;;2.40;;
36747;SDS011;22716;51.556;5.080;2023-01-08T07:58:37;8.27;;;2.40;;
36747;SDS011;22716;51.556;5.080;2023-01-08T08:01:07;4.37;;;1.90;;
36747;SDS011;22716;51.556;5.080;2023-01-08T08:03:38;11.43;;;1.70;;
36747;SDS011;22716;51.556;5.080;2023-01-08T08:06:10;9.63;;;1.57;;
36747;SDS011;22716;51.556;5.080;2023-01-08T08:08:39;17.43;;;2.33;;
36747;SDS011;22716;51.556;5.080;2023-01-08T08:11:08;8.80;;;1.97;;
36747;SDS011;22716;51.556;5.080;2023-01-08T08:13:36;10.47;;;2.30;;
36747;SDS011;22716;51.556;5.080;2023-01-08T08:16:09;7.83;;;1.90;;
36747;SDS011;22716;51.556;5.080;2023-01-08T08:18:38;7.27;;;4.30;;
36747;SDS011;22716;51.556;5.080;2023-01-08T08:21:09;5.53;;;1.77;;
36747;SDS011;22716;51.556;5.080;2023-01-08T08:23:38;8.00;;;2.37;;
36747;SDS011;22716;51.556;5.080;2023-01-08T08:26:07;12.30;;;2.50;;
36747;SDS011;22716;51.556;5.080;2023-01-08T08:28:36;5.27;;;2.30;;
36747;SDS011;22716;51.556;5.080;2023-01-08T08:31:04;5.67;;;1.90;;
36747;SDS011;22716;51.556;5.080;2023-01-08T08:33:33;6.43;;;2.13;;
36747;SDS011;22716;51.556;5.080;2023-01-08T08:36:02;7.03;;;1.80;;
36747;SDS011;22716;51.556;5.080;2023-01-08T08:38:35;9.73;;;2.30;;
36747;SDS011;22716;51.556;5.080;2023-01-08T08:41:04;11.20;;;3.43;;
36747;SDS011;22716;51.556;5.080;2023-01-08T08:43:33;12.30;;;3.23;;
36747;SDS011;22716;51.556;5.080;2023-01-08T08:46:02;6.73;;;1.77;;
36747;SDS011;22716;51.556;5.080;2023-01-08T08:48:30;8.57;;;3.57;;
36747;SDS011;22716;51.556;5.080;2023-01-08T08:50:59;8.70;;;2.07;;
36747;SDS011;22716;51.556;5.080;2023-01-08T08:53:28;7.23;;;1.93;;
36747;SDS011;22716;51.556;5.080;2023-01-08T08:55:59;7.70;;;2.47;;
36747;SDS011;22716;51.556;5.080;2023-01-08T08:58:28;7.43;;;2.00;;
36747;SDS011;22716;51.556;5.080;2023-01-08T09:00:59;12.17;;;1.97;;
36747;SDS011;22716;51.556;5.080;2023-01-08T09:03:28;8.53;;;1.97;;
36747;SDS011;22716;51.556;5.080;2023-01-08T09:05:58;9.90;;;2.30;;
36747;SDS011;22716;51.556;5.080;2023-01-08T09:08:26;5.77;;;1.80;;
36747;SDS011;22716;51.556;5.080;2023-01-08T09:10:55;8.50;;;2.13;;
36747;SDS011;22716;51.556;5.080;2023-01-08T09:13:29;11.80;;;2.30;;
36747;SDS011;22716;51.556;5.080;2023-01-08T09:15:58;7.40;;;1.93;;
36747;SDS011;22716;51.556;5.080;2023-01-08T09:18:27;6.93;;;2.13;;
36747;SDS011;22716;51.556;5.080;2023-01-08T09:20:56;6.43;;;1.50;;
36747;SDS011;22716;51.556;5.080;2023-01-08T09:23:24;7.33;;;2.03;;
36747;SDS011;22716;51.556;5.080;2023-01-08T09:25:57;4.43;;;2.27;;
36747;SDS011;22716;51.556;5.080;2023-01-08T09:28:29;5.73;;;1.97;;
36747;SDS011;22716;51.556;5.080;2023-01-08T09:30:59;8.23;;;1.70;;
36747;SDS011;22716;51.556;5.080;2023-01-08T09:33:29;10.37;;;2.17;;
36747;SDS011;22716;51.556;5.080;2023-01-08T09:35:58;7.00;;;1.83;;
36747;SDS011;22716;51.556;5.080;2023-01-08T09:38:27;7.30;;;2.00;;
36747;SDS011;22716;51.556;5.080;2023-01-08T09:40:57;19.67;;;2.07;;
36747;SDS011;22716;51.556;5.080;2023-01-08T09:43:32;10.20;;;2.27;;
36747;SDS011;22716;51.556;5.080;2023-01-08T09:46:04;8.00;;;2.07;;
36747;SDS011;22716;51.556;5.080;2023-01-08T09:48:36;13.73;;;1.57;;
36747;SDS011;22716;51.556;5.080;2023-01-08T09:51:08;4.35;;;1.67;;
36747;SDS011;22716;51.556;5.080;2023-01-08T09:53:39;6.53;;;1.60;;
36747;SDS011;22716;51.556;5.080;2023-01-08T09:56:09;7.10;;;1.97;;
36747;SDS011;22716;51.556;5.080;2023-01-08T09:58:43;12.10;;;2.47;;
36747;SDS011;22716;51.556;5.080;2023-01-08T10:01:16;5.17;;;1.70;;
36747;SDS011;22716;51.556;5.080;2023-01-08T10:03:48;6.17;;;2.10;;
36747;SDS011;22716;51.556;5.080;2023-01-08T10:06:22;11.65;;;2.50;;
36747;SDS011;22716;51.556;5.080;2023-01-08T10:08:51;9.97;;;2.40;;
36747;SDS011;22716;51.556;5.080;2023-01-08T10:11:20;9.17;;;2.53;;
36747;SDS011;22716;51.556;5.080;2023-01-08T10:13:54;7.17;;;1.97;;
36747;SDS011;22716;51.556;5.080;2023-01-08T10:16:26;4.27;;;1.80;;
36747;SDS011;22716;51.556;5.080;2023-01-08T10:18:58;8.17;;;2.03;;
36747;SDS011;22716;51.556;5.080;2023-01-08T10:21:29;7.77;;;2.37;;
36747;SDS011;22716;51.556;5.080;2023-01-08T10:23:59;7.67;;;2.03;;
36747;SDS011;22716;51.556;5.080;2023-01-08T10:26:29;5.10;;;2.30;;
36747;SDS011;22716;51.556;5.080;2023-01-08T10:29:10;6.50;;;1.90;;
36747;SDS011;22716;51.556;5.080;2023-01-08T10:31:45;6.50;;;1.70;;
36747;SDS011;22716;51.556;5.080;2023-01-08T10:34:26;11.13;;;2.43;;
36747;SDS011;22716;51.556;5.080;2023-01-08T10:36:59;6.20;;;1.73;;
36747;SDS011;22716;51.556;5.080;2023-01-08T10:39:28;2.37;;;1.43;;
36747;SDS011;22716;51.556;5.080;2023-01-08T10:42:02;4.03;;;1.37;;
36747;SDS011;22716;51.556;5.080;2023-01-08T10:44:36;4.87;;;1.93;;
36747;SDS011;22716;51.556;5.080;2023-01-08T10:47:05;3.77;;;1.73;;
36747;SDS011;22716;51.556;5.080;2023-01-08T10:49:34;5.40;;;2.10;;
36747;SDS011;22716;51.556;5.080;2023-01-08T10:52:18;4.03;;;1.03;;
36747;SDS011;22716;51.556;5.080;2023-01-08T10:54:51;5.43;;;1.30;;
36747;SDS011;22716;51.556;5.080;2023-01-08T10:57:21;5.23;;;1.57;;
36747;SDS011;22716;51.556;5.080;2023-01-08T10:59:55;4.30;;;0.97;;
36747;SDS011;22716;51.556;5.080;2023-01-08T11:02:28;5.10;;;2.23;;
36747;SDS011;22716;51.556;5.080;2023-01-08T11:05:01;3.47;;;1.70;;
36747;SDS011;22716;51.556;5.080;2023-01-08T11:07:31;6.47;;;1.37;;
36747;SDS011;22716;51.556;5.080;2023-01-08T11:10:02;3.67;;;1.53;;
36747;SDS011;22716;51.556;5.080;2023-01-08T11:12:33;4.40;;;1.97;;
36747;SDS011;22716;51.556;5.080;2023-01-08T11:18:06;2.87;;;0.90;;
36747;SDS011;22716;51.556;5.080;2023-01-08T11:20:43;5.50;;;1.23;;
36747;SDS011;22716;51.556;5.080;2023-01-08T11:23:17;3.07;;;1.40;;
36747;SDS011;22716;51.556;5.080;2023-01-08T11:25:50;3.43;;;0.90;;
36747;SDS011;22716;51.556;5.080;2023-01-08T11:28:26;1.80;;;0.93;;
36747;SDS011;22716;51.556;5.080;2023-01-08T11:31:06;1.80;;;0.80;;
36747;SDS011;22716;51.556;5.080;2023-01-08T11:33:41;4.43;;;1.37;;
36747;SDS011;22716;51.556;5.080;2023-01-08T11:36:14;1.90;;;0.70;;
36747;SDS011;22716;51.556;5.080;2023-01-08T11:38:49;1.97;;;0.90;;
36747;SDS011;22716;51.556;5.080;2023-01-08T11:41:31;2.37;;;0.83;;
36747;SDS011;22716;51.556;5.080;2023-01-08T11:44:16;1.13;;;0.70;;
36747;SDS011;22716;51.556;5.080;2023-01-08T11:46:59;1.30;;;0.83;;
36747;SDS011;22716;51.556;5.080;2023-01-08T11:49:37;2.30;;;1.03;;
36747;SDS011;22716;51.556;5.080;2023-01-08T11:52:17;2.37;;;0.90;;
36747;SDS011;22716;51.556;5.080;2023-01-08T11:54:57;4.17;;;1.00;;
36747;SDS011;22716;51.556;5.080;2023-01-08T11:57:43;2.37;;;0.80;;
36747;SDS011;22716;51.556;5.080;2023-01-08T12:00:28;2.30;;;0.70;;
36747;SDS011;22716;51.556;5.080;2023-01-08T12:03:10;3.40;;;0.70;;
36747;SDS011;22716;51.556;5.080;2023-01-08T12:05:49;2.70;;;0.90;;
36747;SDS011;22716;51.556;5.080;2023-01-08T12:08:26;1.93;;;0.93;;
36747;SDS011;22716;51.556;5.080;2023-01-08T12:11:05;3.63;;;1.00;;
36747;SDS011;22716;51.556;5.080;2023-01-08T12:13:51;5.67;;;1.20;;
36747;SDS011;22716;51.556;5.080;2023-01-08T12:16:39;2.37;;;1.10;;
36747;SDS011;22716;51.556;5.080;2023-01-08T12:19:26;2.90;;;1.33;;
36747;SDS011;22716;51.556;5.080;2023-01-08T12:22:09;3.53;;;1.30;;
36747;SDS011;22716;51.556;5.080;2023-01-08T12:27:52;5.40;;;1.13;;
36747;SDS011;22716;51.556;5.080;2023-01-08T12:30:32;2.43;;;0.80;;
36747;SDS011;22716;51.556;5.080;2023-01-08T12:33:14;5.17;;;1.30;;
36747;SDS011;22716;51.556;5.080;2023-01-08T12:35:53;3.87;;;1.40;;
36747;SDS011;22716;51.556;5.080;2023-01-08T12:38:27;8.43;;;1.50;;
36747;SDS011;22716;51.556;5.080;2023-01-08T12:40:58;4.60;;;1.97;;
36747;SDS011;22716;51.556;5.080;2023-01-08T12:43:32;5.67;;;1.67;;
36747;SDS011;22716;51.556;5.080;2023-01-08T12:46:07;4.50;;;1.30;;
36747;SDS011;22716;51.556;5.080;2023-01-08T12:48:41;3.63;;;1.00;;
36747;SDS011;22716;51.556;5.080;2023-01-08T12:51:16;5.20;;;1.40;;
36747;SDS011;22716;51.556;5.080;2023-01-08T12:53:54;8.40;;;1.90;;
36747;SDS011;22716;51.556;5.080;2023-01-08T12:56:32;4.23;;;1.10;;
36747;SDS011;22716;51.556;5.080;2023-01-08T12:59:08;4.13;;;1.80;;
36747;SDS011;22716;51.556;5.080;2023-01-08T13:01:45;2.17;;;1.40;;
36747;SDS011;22716;51.556;5.080;2023-01-08T13:04:18;6.60;;;1.93;;
36747;SDS011;22716;51.556;5.080;2023-01-08T13:06:51;5.53;;;1.27;;
36747;SDS011;22716;51.556;5.080;2023-01-08T13:09:25;3.60;;;1.00;;
36747;SDS011;22716;51.556;5.080;2023-01-08T13:11:55;4.27;;;1.53;;
36747;SDS011;22716;51.556;5.080;2023-01-08T13:14:26;4.53;;;1.30;;
36747;SDS011;22716;51.556;5.080;2023-01-08T13:17:02;5.13;;;1.53;;
36747;SDS011;22716;51.556;5.080;2023-01-08T13:19:35;2.83;;;1.47;;
36747;SDS011;22716;51.556;5.080;2023-01-08T13:22:21;3.63;;;1.20;;
36747;SDS011;22716;51.556;5.080;2023-01-08T13:27:35;4.47;;;1.37;;
36747;SDS011;22716;51.556;5.080;2023-01-08T13:33:02;7.43;;;2.00;;
36747;SDS011;22716;51.556;5.080;2023-01-08T13:35:47;2.60;;;1.05;;
36747;SDS011;22716;51.556;5.080;2023-01-08T13:38:19;8.43;;;2.60;;
36747;SDS011;22716;51.556;5.080;2023-01-08T13:40:55;3.67;;;1.63;;
36747;SDS011;22716;51.556;5.080;2023-01-08T13:43:26;5.70;;;1.93;;
36747;SDS011;22716;51.556;5.080;2023-01-08T13:46:05;6.73;;;1.77;;
36747;SDS011;22716;51.556;5.080;2023-01-08T13:48:47;4.90;;;1.20;;
36747;SDS011;22716;51.556;5.080;2023-01-08T13:51:29;10.83;;;2.07;;
36747;SDS011;22716;51.556;5.080;2023-01-08T13:54:04;6.60;;;1.33;;
36747;SDS011;22716;51.556;5.080;2023-01-08T13:56:45;5.18;;;1.25;;
36747;SDS011;22716;51.556;5.080;2023-01-08T13:59:17;6.17;;;2.03;;
36747;SDS011;22716;51.556;5.080;2023-01-08T14:01:52;3.20;;;1.33;;
36747;SDS011;22716;51.556;5.080;2023-01-08T14:04:22;4.63;;;1.40;;
36747;SDS011;22716;51.556;5.080;2023-01-08T14:06:51;5.67;;;1.47;;
36747;SDS011;22716;51.556;5.080;2023-01-08T14:09:23;6.00;;;1.57;;
36747;SDS011;22716;51.556;5.080;2023-01-08T14:11:53;6.93;;;1.63;;
36747;SDS011;22716;51.556;5.080;2023-01-08T14:14:22;6.37;;;1.40;;
36747;SDS011;22716;51.556;5.080;2023-01-08T14:16:52;3.77;;;1.63;;
36747;SDS011;22716;51.556;5.080;2023-01-08T14:19:22;5.47;;;1.93;;
36747;SDS011;22716;51.556;5.080;2023-01-08T14:21:53;7.50;;;1.77;;
36747;SDS011;22716;51.556;5.080;2023-01-08T14:24:28;4.40;;;1.30;;
36747;SDS011;22716;51.556;5.080;2023-01-08T14:26:57;5.77;;;1.97;;
36747;SDS011;22716;51.556;5.080;2023-01-08T14:29:28;5.50;;;1.33;;
36747;SDS011;22716;51.556;5.080;2023-01-08T14:32:00;4.33;;;1.80;;
36747;SDS011;22716;51.556;5.080;2023-01-08T14:34:29;3.33;;;1.20;;
36747;SDS011;22716;51.556;5.080;2023-01-08T14:36:59;4.37;;;2.07;;
36747;SDS011;22716;51.556;5.080;2023-01-08T14:39:34;2.37;;;1.33;;
36747;SDS011;22716;51.556;5.080;2023-01-08T14:42:05;5.00;;;1.43;;
36747;SDS011;22716;51.556;5.080;2023-01-08T14:44:52;5.70;;;1.48;;
36747;SDS011;22716;51.556;5.080;2023-01-08T14:47:22;3.77;;;1.23;;
36747;SDS011;22716;51.556;5.080;2023-01-08T14:49:57;7.20;;;2.17;;
36747;SDS011;22716;51.556;5.080;2023-01-08T14:52:26;4.07;;;1.73;;
36747;SDS011;22716;51.556;5.080;2023-01-08T14:54:58;3.63;;;1.07;;
36747;SDS011;22716;51.556;5.080;2023-01-08T14:57:30;3.97;;;1.37;;
36747;SDS011;22716;51.556;5.080;2023-01-08T14:59:59;3.03;;;1.40;;
36747;SDS011;22716;51.556;5.080;2023-01-08T15:02:30;3.23;;;1.10;;
36747;SDS011;22716;51.556;5.080;2023-01-08T15:05:12;5.53;;;1.23;;
36747;SDS011;22716;51.556;5.080;2023-01-08T15:07:53;3.47;;;1.10;;
36747;SDS011;22716;51.556;5.080;2023-01-08T15:10:33;3.20;;;1.30;;
36747;SDS011;22716;51.556;5.080;2023-01-08T15:13:04;5.53;;;2.10;;
36747;SDS011;22716;51.556;5.080;2023-01-08T15:15:36;5.27;;;2.10;;
36747;SDS011;22716;51.556;5.080;2023-01-08T15:18:18;7.57;;;2.30;;
36747;SDS011;22716;51.556;5.080;2023-01-08T15:20:46;5.47;;;2.50;;
36747;SDS011;22716;51.556;5.080;2023-01-08T15:23:20;8.53;;;2.23;;
36747;SDS011;22716;51.556;5.080;2023-01-08T15:25:55;10.47;;;1.40;;
36747;SDS011;22716;51.556;5.080;2023-01-08T15:28:24;3.90;;;1.97;;
36747;SDS011;22716;51.556;5.080;2023-01-08T15:30:54;5.57;;;1.53;;